Time;durP1;ratioP1;P1;durP2;ratioP2;P2;SDS_P1;SDS_P2;PMS_P1;PMS_P2;Temp;Humidity;BMP_temperature;BMP_pressure;BME280_temperature;BME280_humidity;BME280_pressure;Samples;Min_cycle;Max_cycle;Signal;HPM_P1;HPM_P2
2022/12/28 00:01:16;;;;;;;8.33;4.90;;;6.80;99.90;;;;;;5111713;28;20253;-67
2022/12/28 00:03:43;;;;;;;9.30;5.07;;;6.80;99.90;;;;;;5115052;28;20195;-67
2022/12/28 00:06:10;;;;;;;9.40;5.60;;;6.80;99.90;;;;;;5105607;28;20240;-67
2022/12/28 00:08:37;;;;;;;10.67;5.40;;;6.80;99.90;;;;;;5112577;28;20210;-68
2022/12/28 00:11:06;;;;;;;11.80;5.83;;;6.80;99.90;;;;;;5112649;28;20294;-69
2022/12/28 00:13:38;;;;;;;12.47;5.67;;;6.80;99.90;;;;;;5111837;28;20199;-68
2022/12/28 00:16:17;;;;;;;12.20;5.40;;;6.80;99.90;;;;;;5112291;28;20228;-68
2022/12/28 00:18:44;;;;;;;15.77;6.37;;;6.80;99.90;;;;;;5108417;28;20199;-68
2022/12/28 00:21:10;;;;;;;10.63;6.17;;;6.80;99.90;;;;;;5112397;28;20238;-67
2022/12/28 00:23:37;;;;;;;10.07;5.43;;;6.80;99.90;;;;;;5110473;28;20354;-67
2022/12/28 00:26:08;;;;;;;9.97;6.13;;;6.80;99.90;;;;;;5112286;28;20301;-68
2022/12/28 00:28:35;;;;;;;10.87;6.00;;;6.80;99.90;;;;;;5112346;28;20297;-68
2022/12/28 00:31:02;;;;;;;18.87;6.93;;;6.80;99.90;;;;;;5112266;28;20220;-68
2022/12/28 00:33:29;;;;;;;13.50;6.67;;;6.80;99.90;;;;;;5091980;28;20378;-68
2022/12/28 00:35:58;;;;;;;12.50;6.20;;;6.80;99.90;;;;;;5110783;28;20230;-69
2022/12/28 00:38:26;;;;;;;13.27;6.03;;;6.70;99.90;;;;;;5107572;28;20232;-69
2022/12/28 00:40:52;;;;;;;11.30;5.53;;;6.70;99.90;;;;;;5112008;28;20383;-69
2022/12/28 00:43:19;;;;;;;15.57;6.00;;;6.70;99.90;;;;;;5111990;28;20213;-68
2022/12/28 00:45:46;;;;;;;9.33;5.90;;;6.70;99.90;;;;;;5110994;28;20737;-68
2022/12/28 00:48:14;;;;;;;11.67;5.63;;;6.70;99.90;;;;;;5111045;28;20199;-68
2022/12/28 00:50:41;;;;;;;11.07;5.60;;;6.70;99.90;;;;;;5110948;28;20306;-69
2022/12/28 00:53:09;;;;;;;9.70;5.43;;;6.70;99.90;;;;;;5088483;28;20283;-68
2022/12/28 00:55:36;;;;;;;12.77;6.30;;;6.70;99.90;;;;;;5110516;28;20232;-69
2022/12/28 00:58:03;;;;;;;10.53;5.30;;;6.70;99.90;;;;;;5109577;28;20204;-67
2022/12/28 01:00:31;;;;;;;12.93;5.50;;;6.80;99.90;;;;;;5111411;28;20290;-68
2022/12/28 01:02:58;;;;;;;12.60;5.40;;;6.80;99.90;;;;;;5109838;28;20315;-67
2022/12/28 01:05:25;;;;;;;9.67;5.10;;;6.80;99.90;;;;;;5110105;28;20188;-67
2022/12/28 01:07:52;;;;;;;10.63;5.57;;;6.80;99.90;;;;;;5107455;28;20206;-69
2022/12/28 01:10:19;;;;;;;8.93;5.73;;;6.80;99.90;;;;;;5111589;28;20211;-69
2022/12/28 01:12:46;;;;;;;9.53;5.83;;;6.80;99.90;;;;;;5111126;28;20256;-69
2022/12/28 01:15:12;;;;;;;11.70;5.43;;;6.80;99.90;;;;;;5108555;28;20223;-67
2022/12/28 01:17:39;;;;;;;9.83;5.23;;;6.80;99.90;;;;;;5110631;27;20301;-68
2022/12/28 01:20:07;;;;;;;13.67;6.33;;;6.80;99.90;;;;;;5111240;28;20250;-68
2022/12/28 01:22:34;;;;;;;13.23;5.70;;;6.80;99.90;;;;;;5106828;28;20280;-69
2022/12/28 01:25:00;;;;;;;13.33;5.83;;;6.80;99.90;;;;;;5091882;28;20200;-69
2022/12/28 01:27:27;;;;;;;11.47;5.77;;;6.80;99.90;;;;;;5085155;28;20210;-69
2022/12/28 01:29:54;;;;;;;11.27;5.63;;;6.80;99.90;;;;;;5110016;28;20249;-69
2022/12/28 01:32:21;;;;;;;9.90;5.43;;;6.90;99.90;;;;;;5110117;28;20218;-69
2022/12/28 01:34:47;;;;;;;10.40;6.10;;;6.90;99.90;;;;;;5110610;28;20219;-69
2022/12/28 01:37:14;;;;;;;9.60;5.73;;;6.90;99.90;;;;;;5111047;28;20257;-68
2022/12/28 01:39:41;;;;;;;10.23;4.80;;;6.90;99.90;;;;;;5105473;28;20544;-69
2022/12/28 01:42:15;;;;;;;14.17;5.57;;;6.90;99.90;;;;;;5109227;28;20238;-69
2022/12/28 01:44:45;;;;;;;10.83;5.23;;;6.90;99.90;;;;;;5110117;28;20215;-68
2022/12/28 01:47:20;;;;;;;10.87;5.13;;;6.90;99.90;;;;;;5110799;28;20224;-68
2022/12/28 01:49:59;;;;;;;9.70;5.37;;;7.00;99.90;;;;;;5107275;28;20241;-68
2022/12/28 01:52:32;;;;;;;11.27;6.00;;;7.00;99.90;;;;;;5105741;28;20197;-68
2022/12/28 01:55:03;;;;;;;10.07;5.37;;;7.00;99.90;;;;;;5107883;28;20323;-68
2022/12/28 01:57:34;;;;;;;9.83;5.80;;;7.00;99.90;;;;;;5109279;28;20640;-68
2022/12/28 02:00:13;;;;;;;8.70;5.20;;;7.10;99.90;;;;;;5109852;28;20293;-68
2022/12/28 02:02:55;;;;;;;10.73;5.50;;;7.10;99.90;;;;;;5109861;28;20235;-69
2022/12/28 02:05:27;;;;;;;12.33;5.83;;;7.10;99.90;;;;;;5110423;28;20286;-67
2022/12/28 02:08:03;;;;;;;9.70;6.70;;;7.10;99.90;;;;;;5108676;28;20296;-68
2022/12/28 02:10:31;;;;;;;9.33;6.00;;;7.10;99.90;;;;;;5108997;28;20577;-66
2022/12/28 02:13:13;;;;;;;10.23;6.07;;;7.20;99.90;;;;;;5109907;28;20565;-69
2022/12/28 02:15:40;;;;;;;10.57;5.60;;;7.20;99.90;;;;;;5108488;28;20247;-69
2022/12/28 02:18:07;;;;;;;9.33;6.23;;;7.20;99.90;;;;;;5110376;28;20243;-69
2022/12/28 02:21:06;;;;;;;9.27;6.17;;;7.20;99.90;;;;;;5108364;28;20515;-69
2022/12/28 02:23:55;;;;;;;10.67;6.20;;;7.20;99.90;;;;;;5102176;28;20203;-69
2022/12/28 02:26:25;;;;;;;11.40;5.70;;;7.30;99.90;;;;;;5109296;28;20215;-69
2022/12/28 02:29:11;;;;;;;12.10;6.10;;;7.20;99.90;;;;;;5084854;28;20283;-69
2022/12/28 02:32:03;;;;;;;14.87;5.93;;;7.30;99.90;;;;;;5108805;28;20696;-69
2022/12/28 02:34:52;;;;;;;18.80;6.93;;;7.30;99.90;;;;;;5109252;28;20236;-68
2022/12/28 02:37:23;;;;;;;10.13;5.30;;;7.30;99.90;;;;;;5109715;28;20286;-69
2022/12/28 02:40:04;;;;;;;9.27;5.40;;;7.30;99.90;;;;;;5106189;28;20194;-69
2022/12/28 02:42:34;;;;;;;9.93;5.60;;;7.40;99.90;;;;;;5109746;28;20289;-69
2022/12/28 02:51:22;;;;;;;11.10;6.10;;;7.40;99.90;;;;;;5104293;28;20301;-68
2022/12/28 02:54:10;;;;;;;10.53;5.90;;;7.40;99.90;;;;;;5106598;28;20621;-68
2022/12/28 02:56:59;;;;;;;10.80;6.17;;;7.40;99.90;;;;;;5105335;28;20336;-69
2022/12/28 02:59:39;;;;;;;7.97;6.13;;;7.30;99.90;;;;;;5108476;28;20202;-69
2022/12/28 03:02:33;;;;;;;8.40;5.97;;;7.30;99.90;;;;;;5104078;28;20394;-68
2022/12/28 03:05:12;;;;;;;8.90;5.90;;;7.30;99.90;;;;;;5109996;28;20200;-69
2022/12/28 03:08:21;;;;;;;12.10;7.10;;;7.30;99.90;;;;;;5109535;28;20294;-69
2022/12/28 03:11:00;;;;;;;10.40;6.60;;;7.30;99.90;;;;;;5108821;28;20204;-69
2022/12/28 03:13:43;;;;;;;10.43;6.53;;;7.30;99.90;;;;;;5091098;28;20236;-69
2022/12/28 03:16:19;;;;;;;11.53;6.37;;;7.30;99.90;;;;;;5107466;28;20229;-69
2022/12/28 03:32:53;;;;;;;10.73;6.33;;;7.30;99.90;;;;;;5105447;28;20730;-68
2022/12/28 03:35:26;;;;;;;8.63;6.03;;;7.30;99.90;;;;;;5089915;28;20344;-69
2022/12/28 03:37:59;;;;;;;9.00;5.97;;;7.30;99.90;;;;;;5109545;28;20203;-68
2022/12/28 03:40:32;;;;;;;10.63;5.83;;;7.30;99.90;;;;;;5088854;28;20693;-68
2022/12/28 03:46:08;;;;;;;7.97;4.90;;;7.30;99.90;;;;;;5112569;28;20203;-68
2022/12/28 03:48:36;;;;;;;7.10;5.13;;;7.30;99.90;;;;;;5111180;28;20688;-69
2022/12/28 03:51:03;;;;;;;9.47;5.00;;;7.30;99.90;;;;;;5112472;28;20707;-69
2022/12/28 03:53:41;;;;;;;9.37;6.03;;;7.30;99.90;;;;;;5113345;28;20222;-69
2022/12/28 03:56:17;;;;;;;7.23;5.27;;;7.30;99.90;;;;;;5091231;28;20375;-69
2022/12/28 03:58:45;;;;;;;8.97;5.37;;;7.30;99.90;;;;;;5110564;28;20574;-69
2022/12/28 04:01:11;;;;;;;7.33;5.40;;;7.30;99.90;;;;;;5111968;28;20307;-69
2022/12/28 04:03:39;;;;;;;6.90;5.43;;;7.40;99.90;;;;;;5112473;28;20207;-69
2022/12/28 04:06:06;;;;;;;9.83;6.27;;;7.40;99.90;;;;;;5107550;28;20732;-69
2022/12/28 04:08:34;;;;;;;9.87;6.20;;;7.40;99.90;;;;;;5112334;28;20676;-69
2022/12/28 04:11:01;;;;;;;9.53;7.07;;;7.50;99.90;;;;;;5112876;28;20672;-69
2022/12/28 04:13:29;;;;;;;12.53;7.30;;;7.50;99.90;;;;;;5111998;28;20253;-68
2022/12/28 04:16:02;;;;;;;11.07;7.27;;;7.50;99.90;;;;;;5110251;28;20228;-68
2022/12/28 04:18:31;;;;;;;15.30;8.00;;;7.50;99.90;;;;;;5094190;28;20205;-69
2022/12/28 04:20:58;;;;;;;11.27;8.17;;;7.50;99.90;;;;;;5112581;28;20218;-69
2022/12/28 04:23:25;;;;;;;12.63;8.40;;;7.50;99.90;;;;;;5111053;28;20191;-69
2022/12/28 04:26:12;;;;;;;12.07;8.53;;;7.50;99.90;;;;;;5112546;28;20212;-70
2022/12/28 04:28:39;;;;;;;12.73;8.27;;;7.60;99.90;;;;;;5111048;28;20252;-69
2022/12/28 04:31:07;;;;;;;13.50;8.70;;;7.60;99.90;;;;;;5094763;28;20251;-70
2022/12/28 04:33:35;;;;;;;12.27;8.43;;;7.50;99.90;;;;;;5111368;28;20187;-70
2022/12/28 04:36:04;;;;;;;13.63;9.20;;;7.60;99.90;;;;;;5110909;28;20235;-69
2022/12/28 04:38:32;;;;;;;11.97;8.07;;;7.60;99.90;;;;;;5093298;28;20197;-70
2022/12/28 04:40:59;;;;;;;15.67;9.90;;;7.70;99.90;;;;;;5112371;28;20238;-69
2022/12/28 04:43:25;;;;;;;17.33;9.20;;;7.70;99.90;;;;;;5112351;28;20283;-70
2022/12/28 04:46:04;;;;;;;15.83;8.97;;;7.70;99.90;;;;;;5112118;28;20290;-70
2022/12/28 04:48:31;;;;;;;14.03;8.93;;;7.80;99.90;;;;;;5110317;28;20247;-69
2022/12/28 04:51:04;;;;;;;13.83;9.53;;;7.80;99.90;;;;;;5108091;28;20316;-68
2022/12/28 04:53:30;;;;;;;13.13;9.63;;;7.80;99.90;;;;;;5092187;28;20242;-68
2022/12/28 04:56:02;;;;;;;14.97;9.47;;;7.80;99.90;;;;;;5106604;28;20319;-69
2022/12/28 04:58:29;;;;;;;12.20;8.97;;;7.90;99.90;;;;;;5111679;28;20288;-69
2022/12/28 05:01:03;;;;;;;13.63;9.10;;;7.90;99.90;;;;;;5112123;28;20214;-69
2022/12/28 05:03:31;;;;;;;12.63;8.57;;;7.90;99.90;;;;;;5106642;28;20196;-69
2022/12/28 05:06:03;;;;;;;11.87;8.73;;;7.90;99.90;;;;;;5109377;28;20463;-69
2022/12/28 05:08:31;;;;;;;16.50;10.67;;;8.00;99.90;;;;;;5111292;28;20225;-69
2022/12/28 05:11:02;;;;;;;12.33;8.40;;;8.00;99.90;;;;;;5111021;28;20212;-69
2022/12/28 05:13:30;;;;;;;14.63;9.60;;;8.10;99.90;;;;;;5108120;28;20245;-68
2022/12/28 05:16:04;;;;;;;13.53;9.40;;;8.10;99.90;;;;;;5111270;28;20226;-68
2022/12/28 05:18:31;;;;;;;14.50;9.43;;;8.10;99.90;;;;;;5108810;28;20198;-69
2022/12/28 05:21:09;;;;;;;15.50;10.27;;;8.10;99.90;;;;;;5104461;28;20289;-69
2022/12/28 05:23:37;;;;;;;15.67;10.70;;;8.10;99.90;;;;;;5106203;28;20297;-69
2022/12/28 05:26:05;;;;;;;14.77;9.83;;;8.10;99.90;;;;;;5111638;28;20753;-68
2022/12/28 05:28:32;;;;;;;16.83;10.73;;;8.20;99.90;;;;;;5111314;28;20236;-69
2022/12/28 05:31:01;;;;;;;15.53;11.20;;;8.20;99.90;;;;;;5110133;28;20252;-69
2022/12/28 05:33:30;;;;;;;15.93;10.97;;;8.20;99.90;;;;;;5105679;28;20211;-68
2022/12/28 05:36:02;;;;;;;16.07;11.23;;;8.20;99.90;;;;;;5110918;28;20296;-69
2022/12/28 05:38:29;;;;;;;18.20;11.10;;;8.30;99.90;;;;;;5109986;28;20298;-70
2022/12/28 05:41:02;;;;;;;18.57;12.30;;;8.30;99.90;;;;;;5110061;28;20680;-69
2022/12/28 05:43:29;;;;;;;16.17;12.03;;;8.30;99.90;;;;;;5108651;28;20665;-69
2022/12/28 05:46:03;;;;;;;15.47;11.50;;;8.30;99.90;;;;;;5110752;28;20647;-69
2022/12/28 05:48:33;;;;;;;18.43;12.70;;;8.40;99.90;;;;;;5109741;28;20279;-69
2022/12/28 05:51:08;;;;;;;16.57;12.37;;;8.40;99.90;;;;;;5092637;28;20239;-69
2022/12/28 05:53:36;;;;;;;19.33;13.60;;;8.40;99.90;;;;;;5104299;28;20229;-69
2022/12/28 05:56:18;;;;;;;18.17;12.63;;;8.40;99.90;;;;;;5087398;28;20698;-69
2022/12/28 05:58:50;;;;;;;18.60;12.60;;;8.50;99.90;;;;;;5105128;28;20197;-69
2022/12/28 06:01:19;;;;;;;18.90;13.50;;;8.50;99.90;;;;;;5104051;28;20214;-69
2022/12/28 06:03:50;;;;;;;22.43;13.90;;;8.40;99.90;;;;;;5108290;28;20748;-69
2022/12/28 06:06:19;;;;;;;21.53;13.77;;;8.50;99.90;;;;;;5106978;28;20206;-69
2022/12/28 06:08:47;;;;;;;21.57;13.23;;;8.50;99.90;;;;;;5105110;28;20317;-69
2022/12/28 06:11:17;;;;;;;19.70;13.53;;;8.60;99.90;;;;;;5087455;28;20643;-69
2022/12/28 06:13:44;;;;;;;25.43;14.60;;;8.60;99.90;;;;;;5108866;28;20299;-69
2022/12/28 06:16:15;;;;;;;18.67;13.10;;;8.60;99.90;;;;;;5109277;28;20215;-69
2022/12/28 06:18:43;;;;;;;18.60;12.67;;;8.60;99.90;;;;;;5108210;28;20204;-69
2022/12/28 06:21:11;;;;;;;18.30;12.60;;;8.60;99.90;;;;;;5104547;28;20230;-69
2022/12/28 06:23:38;;;;;;;16.23;12.27;;;8.60;99.90;;;;;;5105851;28;20213;-68
2022/12/28 06:26:07;;;;;;;19.20;12.80;;;8.60;99.90;;;;;;5106543;28;20599;-68
2022/12/28 06:28:37;;;;;;;16.33;11.60;;;8.60;99.90;;;;;;5108542;28;20241;-68
2022/12/28 06:31:12;;;;;;;20.63;12.47;;;8.60;99.90;;;;;;5108477;28;20767;-69
2022/12/28 06:33:40;;;;;;;18.23;12.53;;;8.60;99.90;;;;;;5101575;28;20240;-69
2022/12/28 06:36:18;;;;;;;17.07;11.57;;;8.60;99.90;;;;;;5108906;28;20270;-69
2022/12/28 06:38:48;;;;;;;16.40;12.27;;;8.70;99.90;;;;;;5103409;28;20210;-69
2022/12/28 06:41:17;;;;;;;17.53;12.13;;;8.70;99.90;;;;;;5109880;28;20262;-69
2022/12/28 06:43:44;;;;;;;15.47;12.03;;;8.70;99.90;;;;;;5109134;28;20251;-68
2022/12/28 06:46:13;;;;;;;14.93;11.30;;;8.70;99.90;;;;;;5083243;28;20717;-69
2022/12/28 06:48:40;;;;;;;16.20;11.37;;;8.70;99.90;;;;;;5101882;28;20352;-69
2022/12/28 06:51:11;;;;;;;14.73;11.13;;;8.80;99.90;;;;;;5097466;28;20220;-68
2022/12/28 06:53:38;;;;;;;17.77;11.17;;;8.80;99.90;;;;;;5084902;28;20203;-68
2022/12/28 06:56:10;;;;;;;13.67;10.60;;;8.80;99.90;;;;;;5105463;28;20254;-68
2022/12/28 06:58:38;;;;;;;16.60;11.03;;;8.80;99.90;;;;;;5083832;28;20649;-68
2022/12/28 07:01:13;;;;;;;15.17;11.57;;;8.80;99.90;;;;;;5102519;28;20218;-68
2022/12/28 07:03:41;;;;;;;14.93;10.53;;;8.80;99.90;;;;;;5106576;28;20199;-70
2022/12/28 07:06:08;;;;;;;15.03;11.33;;;8.80;99.90;;;;;;5106989;28;20198;-69
2022/12/28 07:08:35;;;;;;;18.03;10.70;;;8.80;99.90;;;;;;5110002;28;20729;-69
2022/12/28 07:11:04;;;;;;;15.43;11.20;;;8.90;99.90;;;;;;5109543;28;20681;-70
2022/12/28 07:13:32;;;;;;;13.70;10.10;;;8.90;99.90;;;;;;5110120;28;20268;-69
2022/12/28 07:16:07;;;;;;;15.30;10.67;;;8.80;99.90;;;;;;5113323;28;20297;-69
2022/12/28 07:18:34;;;;;;;15.83;10.17;;;8.80;99.90;;;;;;5113420;28;20285;-69
2022/12/28 07:21:03;;;;;;;13.20;10.23;;;8.80;99.90;;;;;;5113722;28;20209;-69
2022/12/28 07:23:31;;;;;;;14.00;10.10;;;8.80;99.90;;;;;;5093870;28;20294;-69
2022/12/28 07:26:08;;;;;;;13.37;9.77;;;8.90;99.90;;;;;;5095062;28;20749;-69
2022/12/28 07:28:37;;;;;;;15.57;10.37;;;8.90;99.90;;;;;;5113973;28;20210;-69
2022/12/28 07:31:09;;;;;;;16.63;10.83;;;8.80;99.90;;;;;;5112306;28;20227;-69
2022/12/28 07:33:36;;;;;;;17.57;10.73;;;8.80;99.90;;;;;;5112973;28;20206;-69
2022/12/28 07:36:05;;;;;;;16.33;10.97;;;8.90;99.90;;;;;;5110059;28;20290;-69
2022/12/28 07:38:32;;;;;;;15.97;10.13;;;8.90;99.90;;;;;;5113651;28;20297;-69
2022/12/28 07:41:08;;;;;;;18.15;13.70;;;8.90;99.90;;;;;;5111647;28;20860;-69
2022/12/28 07:43:35;;;;;;;15.60;11.10;;;9.20;99.90;;;;;;5111573;28;20194;-69
2022/12/28 07:46:04;;;;;;;16.07;10.40;;;9.10;99.90;;;;;;5109779;28;20276;-69
2022/12/28 07:48:32;;;;;;;15.83;10.53;;;9.10;99.90;;;;;;5088690;28;20349;-68
2022/12/28 07:51:19;;;;;;;17.27;11.33;;;9.00;99.90;;;;;;5091175;28;20284;-68
2022/12/28 07:53:47;;;;;;;16.10;11.40;;;9.00;99.90;;;;;;5087896;28;20196;-68
2022/12/28 07:56:18;;;;;;;18.27;11.57;;;9.00;99.90;;;;;;5111758;28;20227;-70
2022/12/28 07:58:49;;;;;;;16.67;11.63;;;9.00;99.90;;;;;;5087144;28;20243;-70
2022/12/28 08:01:16;;;;;;;17.80;11.30;;;9.00;99.90;;;;;;5105998;28;20282;-69
2022/12/28 08:03:44;;;;;;;16.80;12.33;;;9.00;99.90;;;;;;5108578;28;20207;-70
2022/12/28 08:06:19;;;;;;;18.47;11.47;;;9.00;99.90;;;;;;5110644;28;20227;-69
2022/12/28 08:08:48;;;;;;;18.30;11.23;;;9.10;99.90;;;;;;5108608;28;20203;-68
2022/12/28 08:11:20;;;;;;;17.07;11.27;;;9.10;99.90;;;;;;5112603;28;20297;-68
2022/12/28 08:13:50;;;;;;;17.13;11.07;;;9.10;99.90;;;;;;5108797;28;20274;-70
2022/12/28 08:16:19;;;;;;;18.47;11.47;;;9.10;99.90;;;;;;5109794;28;20214;-69
2022/12/28 08:18:48;;;;;;;18.03;12.27;;;9.10;99.90;;;;;;5105709;28;20298;-69
2022/12/28 08:21:17;;;;;;;19.53;12.27;;;9.10;99.90;;;;;;5089308;28;20199;-70
2022/12/28 08:23:44;;;;;;;20.77;12.37;;;9.10;99.90;;;;;;5111373;28;20207;-70
2022/12/28 08:26:20;;;;;;;17.53;12.43;;;9.10;99.90;;;;;;5111398;28;20199;-70
2022/12/28 08:28:48;;;;;;;19.73;12.90;;;9.10;99.90;;;;;;5104658;28;20299;-69
2022/12/28 08:31:21;;;;;;;16.87;11.60;;;9.10;99.90;;;;;;5112124;28;20292;-69
2022/12/28 08:33:49;;;;;;;17.80;12.63;;;9.10;99.90;;;;;;5108310;28;20271;-69
2022/12/28 08:36:15;;;;;;;19.00;12.53;;;9.10;99.90;;;;;;5104900;28;20199;-69
2022/12/28 08:38:43;;;;;;;19.00;12.47;;;9.10;99.90;;;;;;5108422;28;20730;-68
2022/12/28 08:41:13;;;;;;;21.47;11.97;;;9.20;99.90;;;;;;5093437;28;20191;-69
2022/12/28 08:43:40;;;;;;;20.20;12.57;;;9.20;99.90;;;;;;5110369;28;20195;-70
2022/12/28 08:46:31;;;;;;;18.93;11.97;;;9.20;99.90;;;;;;5108202;28;20219;-68
2022/12/28 08:48:59;;;;;;;18.80;13.20;;;9.30;99.90;;;;;;5099196;28;20215;-70
2022/12/28 08:51:38;;;;;;;22.50;12.80;;;9.30;99.90;;;;;;5091088;28;20655;-69
2022/12/28 08:54:06;;;;;;;15.73;11.27;;;9.30;99.90;;;;;;5112162;28;20264;-70
2022/12/28 08:56:35;;;;;;;17.23;11.43;;;9.20;99.90;;;;;;5112179;28;20225;-69
2022/12/28 08:59:03;;;;;;;15.80;10.67;;;9.30;99.90;;;;;;5112331;28;20206;-70
2022/12/28 09:01:36;;;;;;;15.27;9.87;;;9.30;99.90;;;;;;5112049;28;20247;-69
2022/12/28 09:04:19;;;;;;;15.73;11.23;;;9.30;99.90;;;;;;5110783;28;20630;-70
2022/12/28 09:06:46;;;;;;;15.17;9.57;;;9.30;99.90;;;;;;5111295;28;20297;-70
2022/12/28 09:09:16;;;;;;;16.43;10.30;;;9.30;99.90;;;;;;5112189;28;20720;-69
2022/12/28 09:11:43;;;;;;;18.63;10.47;;;9.30;99.90;;;;;;5093348;28;20298;-69
2022/12/28 09:14:12;;;;;;;14.43;9.93;;;9.30;99.90;;;;;;5112037;28;20256;-70
2022/12/28 09:16:48;;;;;;;15.70;10.57;;;9.30;99.90;;;;;;5109683;28;20265;-69
2022/12/28 09:19:15;;;;;;;17.17;10.70;;;9.30;99.90;;;;;;5112112;28;20261;-70
2022/12/28 09:21:44;;;;;;;18.60;11.53;;;9.40;99.90;;;;;;5086047;28;20207;-70
2022/12/28 09:24:12;;;;;;;15.47;10.53;;;9.40;99.90;;;;;;5112256;28;20203;-70
2022/12/28 09:26:39;;;;;;;15.83;11.10;;;9.40;99.90;;;;;;5111584;28;20215;-70
2022/12/28 09:29:09;;;;;;;14.97;10.40;;;9.40;99.90;;;;;;5093160;28;20264;-69
2022/12/28 09:31:37;;;;;;;18.03;11.23;;;9.40;99.90;;;;;;5111535;28;20271;-69
2022/12/28 09:34:05;;;;;;;17.00;11.03;;;9.40;99.90;;;;;;5093741;28;20199;-69
2022/12/28 09:36:52;;;;;;;15.43;11.00;;;9.40;99.90;;;;;;5108475;28;20223;-69
2022/12/28 09:39:23;;;;;;;15.57;10.33;;;9.40;99.90;;;;;;5110514;28;20293;-69
2022/12/28 09:41:55;;;;;;;14.63;9.97;;;9.50;99.90;;;;;;5107769;28;20195;-68
2022/12/28 09:45:01;;;;;;;16.53;10.00;;;9.40;99.90;;;;;;5111406;28;20290;-69
2022/12/28 09:47:46;;;;;;;12.87;9.30;;;9.50;99.90;;;;;;5084731;28;20298;-69
2022/12/28 09:50:15;;;;;;;14.53;9.53;;;9.50;99.90;;;;;;5090900;28;20238;-70
2022/12/28 09:52:54;;;;;;;15.37;9.37;;;9.50;99.90;;;;;;5110912;28;20607;-69
2022/12/28 09:55:21;;;;;;;11.80;8.07;;;9.40;99.90;;;;;;5109381;28;20249;-70
2022/12/28 09:57:51;;;;;;;13.27;8.40;;;9.50;99.90;;;;;;5107024;28;20640;-68
2022/12/28 10:00:30;;;;;;;10.70;7.70;;;9.50;99.90;;;;;;5110806;28;20282;-69
2022/12/28 10:03:05;;;;;;;11.47;8.23;;;9.50;99.90;;;;;;5109252;28;20258;-69
2022/12/28 10:05:33;;;;;;;9.67;7.00;;;9.50;99.90;;;;;;5108916;28;20553;-69
2022/12/28 10:07:59;;;;;;;9.50;7.13;;;9.60;99.90;;;;;;5110729;28;20203;-69
2022/12/28 10:10:27;;;;;;;8.47;6.63;;;9.60;99.90;;;;;;5092783;28;20217;-69
2022/12/28 10:12:54;;;;;;;9.20;6.50;;;9.60;99.90;;;;;;5092630;28;20680;-69
2022/12/28 10:15:25;;;;;;;9.53;7.40;;;9.60;99.90;;;;;;5109630;28;20701;-70
2022/12/28 10:17:52;;;;;;;10.33;6.57;;;9.60;99.90;;;;;;5110908;28;20755;-70
2022/12/28 10:20:21;;;;;;;8.60;6.83;;;9.60;99.90;;;;;;5111270;28;20222;-69
2022/12/28 10:22:51;;;;;;;8.93;6.90;;;9.50;99.90;;;;;;5108699;28;20227;-71
2022/12/28 10:25:22;;;;;;;11.50;7.77;;;9.60;99.90;;;;;;5110219;28;20206;-71
2022/12/28 10:27:49;;;;;;;12.50;7.97;;;9.60;99.90;;;;;;5106818;28;20697;-70
2022/12/28 10:30:19;;;;;;;12.23;7.73;;;9.60;99.90;;;;;;5110276;28;20305;-72
2022/12/28 10:32:54;;;;;;;10.37;7.67;;;9.60;99.90;;;;;;5108848;28;20314;-69
2022/12/28 10:35:36;;;;;;;10.83;6.63;;;9.60;99.90;;;;;;5108755;28;20199;-71
2022/12/28 10:38:24;;;;;;;9.67;6.73;;;9.60;99.90;;;;;;5109983;28;20226;-70
2022/12/28 10:41:02;;;;;;;11.80;7.53;;;9.70;99.90;;;;;;5106223;28;20564;-70
2022/12/28 10:43:33;;;;;;;10.70;7.17;;;9.60;99.90;;;;;;5105589;28;20295;-69
2022/12/28 10:46:02;;;;;;;10.50;6.90;;;9.60;99.90;;;;;;5089206;28;20211;-70
2022/12/28 10:48:42;;;;;;;10.80;6.97;;;9.60;99.90;;;;;;5108114;28;20223;-69
2022/12/28 10:51:13;;;;;;;11.10;6.50;;;9.60;99.90;;;;;;5089501;28;20259;-70
2022/12/28 10:53:45;;;;;;;10.00;6.53;;;9.60;99.90;;;;;;5089369;28;20660;-70
2022/12/28 10:56:11;;;;;;;8.70;6.37;;;9.60;99.90;;;;;;5088875;28;20196;-70
2022/12/28 10:58:40;;;;;;;9.63;6.23;;;9.60;99.90;;;;;;5067104;28;20255;-70
2022/12/28 11:01:13;;;;;;;9.43;6.10;;;9.70;99.90;;;;;;5089753;28;20755;-70
2022/12/28 11:03:43;;;;;;;7.83;5.97;;;9.60;99.90;;;;;;5070527;28;20191;-70
2022/12/28 11:06:18;;;;;;;8.47;6.20;;;9.60;99.90;;;;;;5089317;28;20206;-70
2022/12/28 11:09:03;;;;;;;9.17;6.20;;;9.60;99.90;;;;;;5088483;28;20203;-70
2022/12/28 11:11:35;;;;;;;8.77;6.20;;;9.60;99.90;;;;;;5066511;28;20540;-70
2022/12/28 11:14:16;;;;;;;9.67;6.47;;;9.60;99.90;;;;;;5084951;28;20452;-70
2022/12/28 11:16:46;;;;;;;8.10;5.60;;;9.60;99.90;;;;;;5088916;28;20246;-68
2022/12/28 11:19:14;;;;;;;11.03;6.13;;;9.60;99.90;;;;;;5086251;28;20709;-68
2022/12/28 11:21:41;;;;;;;10.27;6.10;;;9.60;99.90;;;;;;5088764;28;20215;-70
2022/12/28 11:24:14;;;;;;;6.73;5.53;;;9.60;99.90;;;;;;5083779;28;20315;-69
2022/12/28 11:26:48;;;;;;;11.30;6.30;;;9.60;99.90;;;;;;5080859;28;20307;-69
2022/12/28 11:29:16;;;;;;;7.63;4.70;;;9.70;99.90;;;;;;5081175;28;20758;-69
2022/12/28 11:31:48;;;;;;;7.93;5.13;;;9.60;99.90;;;;;;5065086;28;20219;-68
2022/12/28 11:34:22;;;;;;;7.13;4.40;;;9.70;99.90;;;;;;5085547;28;20239;-68
2022/12/28 11:36:49;;;;;;;6.27;4.23;;;9.70;99.90;;;;;;5087440;28;20295;-69
2022/12/28 11:39:25;;;;;;;5.30;4.03;;;9.70;99.90;;;;;;5083364;28;20231;-69
2022/12/28 11:41:55;;;;;;;4.87;4.03;;;9.80;99.90;;;;;;5087693;28;20222;-69
2022/12/28 11:44:41;;;;;;;3.93;3.40;;;9.80;99.90;;;;;;5080658;28;20188;-70
2022/12/28 11:47:14;;;;;;;6.57;3.80;;;9.80;99.90;;;;;;5084903;28;20226;-70
2022/12/28 11:49:42;;;;;;;3.87;3.23;;;9.80;99.90;;;;;;5063509;28;20224;-69
2022/12/28 11:52:16;;;;;;;3.53;2.80;;;9.80;99.90;;;;;;5086696;28;20231;-69
2022/12/28 11:54:57;;;;;;;3.60;2.93;;;9.90;99.90;;;;;;5083422;28;20808;-70
2022/12/28 11:57:38;;;;;;;5.27;2.80;;;9.80;99.90;;;;;;5068926;28;20220;-69
2022/12/28 12:00:37;;;;;;;5.07;2.93;;;9.80;99.90;;;;;;5081326;28;20215;-69
2022/12/28 12:03:03;;;;;;;3.20;2.73;;;9.80;99.90;;;;;;5087753;28;20234;-69
2022/12/28 12:05:39;;;;;;;3.00;2.70;;;9.80;99.90;;;;;;5088191;28;20611;-69
2022/12/28 12:08:16;;;;;;;2.90;2.47;;;9.80;99.90;;;;;;5088411;28;20204;-70
2022/12/28 12:10:44;;;;;;;3.33;3.03;;;9.80;99.90;;;;;;5092177;28;20282;-68
2022/12/28 12:13:38;;;;;;;4.33;2.50;;;9.80;99.90;;;;;;5071947;28;20238;-68
2022/12/28 12:16:17;;;;;;;4.53;2.73;;;9.80;99.90;;;;;;5084165;28;20220;-69
2022/12/28 12:18:50;;;;;;;2.80;2.60;;;9.80;99.90;;;;;;5071574;28;20231;-69
2022/12/28 12:21:34;;;;;;;3.47;2.70;;;9.80;99.90;;;;;;5086938;28;20203;-69
2022/12/28 12:24:25;;;;;;;3.73;2.40;;;9.80;99.90;;;;;;5089078;28;20696;-69
2022/12/28 12:27:13;;;;;;;2.93;2.57;;;9.70;99.90;;;;;;5090801;28;20250;-69
2022/12/28 12:29:45;;;;;;;2.83;2.53;;;9.80;99.90;;;;;;5090804;28;20232;-69
2022/12/28 12:32:37;;;;;;;2.60;2.40;;;9.80;99.90;;;;;;5088369;28;20220;-69
2022/12/28 12:35:07;;;;;;;3.93;2.87;;;9.80;99.90;;;;;;5090608;28;20233;-70
2022/12/28 12:37:48;;;;;;;3.17;2.63;;;9.80;99.90;;;;;;5082101;28;20264;-69
2022/12/28 12:40:21;;;;;;;6.73;3.03;;;9.80;99.90;;;;;;5090212;28;20302;-69
2022/12/28 12:43:31;;;;;;;5.30;3.13;;;9.80;99.90;;;;;;5089446;28;20630;-69
2022/12/28 12:46:28;;;;;;;4.47;3.07;;;9.80;99.90;;;;;;5087645;28;20220;-69
2022/12/28 12:49:12;;;;;;;3.70;3.00;;;9.80;99.90;;;;;;5086238;28;20208;-69
2022/12/28 12:51:57;;;;;;;3.73;3.40;;;9.80;99.90;;;;;;5090247;28;20264;-68
2022/12/28 12:55:03;;;;;;;3.67;3.23;;;9.80;99.90;;;;;;5088618;28;20656;-69
2022/12/28 12:57:43;;;;;;;4.70;2.87;;;9.80;99.90;;;;;;5041260;28;20752;-69
2022/12/28 13:00:21;;;;;;;6.10;3.40;;;9.80;99.90;;;;;;5089625;28;20238;-69
2022/12/28 13:03:18;;;;;;;5.10;3.27;;;9.80;99.90;;;;;;5088986;28;20243;-68
2022/12/28 13:05:51;;;;;;;4.83;3.20;;;9.80;99.90;;;;;;5087405;28;20250;-69
2022/12/28 13:08:34;;;;;;;4.27;3.50;;;9.80;99.90;;;;;;5091486;28;20250;-69
2022/12/28 13:11:01;;;;;;;6.23;3.40;;;9.80;99.90;;;;;;5088318;28;20295;-69
2022/12/28 13:13:34;;;;;;;5.40;3.97;;;9.80;99.90;;;;;;5090934;28;20299;-69
2022/12/28 13:16:06;;;;;;;7.47;4.50;;;9.80;99.90;;;;;;5087521;28;20574;-69
2022/12/28 13:18:33;;;;;;;4.73;4.17;;;9.80;99.90;;;;;;5087650;28;20769;-69
2022/12/28 13:21:20;;;;;;;8.17;5.00;;;9.80;99.90;;;;;;5083723;28;20195;-69
2022/12/28 13:23:47;;;;;;;5.40;4.53;;;9.80;99.90;;;;;;5088188;28;20286;-70
2022/12/28 13:26:15;;;;;;;6.90;4.60;;;9.80;99.90;;;;;;5091273;28;20513;-70
2022/12/28 13:29:19;;;;;;;;;;;;;;;;;;;;;
2022/12/28 13:32:04;;;;;;;7.57;4.40;;;9.90;99.90;;;;;;5098455;28;20287;-94
2022/12/28 13:38:56;;;;;;;9.60;4.43;;;9.80;99.90;;;;;;5062484;27;20226;-92
2022/12/28 13:42:24;;;;;;;8.50;4.63;;;9.80;99.90;;;;;;5043818;28;20643;-94
2022/12/28 13:45:56;;;;;;;;;;;;;;;;;;;;;
2022/12/28 13:49:03;;;;;;;;;;;;;;;;;;;;;